Time;durP1;ratioP1;P1;durP2;ratioP2;P2;SDS_P1;SDS_P2;PMS_P1;PMS_P2;Temp;Humidity;BMP_temperature;BMP_pressure;BME280_temperature;BME280_humidity;BME280_pressure;Samples;Min_cycle;Max_cycle;Signal;HPM_P1;HPM_P2
2023/08/15 00:00:45;;;;;;;11.30;5.72;;;;;;;18.37;100.00;100976.84;7385590;19;20369;-41
2023/08/15 00:03:15;;;;;;;13.43;7.05;;;;;;;18.30;100.00;100980.25;7361380;19;20883;-42
2023/08/15 00:05:44;;;;;;;11.90;6.80;;;;;;;18.31;100.00;100987.22;7384053;19;20914;-38
2023/08/15 00:08:16;;;;;;;11.63;6.30;;;;;;;18.34;100.00;100987.25;7361439;19;20727;-39
2023/08/15 00:10:47;;;;;;;9.33;6.20;;;;;;;18.21;100.00;100981.84;7385197;19;20436;-38
2023/08/15 00:13:17;;;;;;;12.65;6.55;;;;;;;18.11;100.00;100990.44;7360957;19;20971;-40
2023/08/15 00:15:46;;;;;;;10.82;6.43;;;;;;;18.11;100.00;100989.53;7386807;19;20362;-39
2023/08/15 00:18:16;;;;;;;9.98;6.68;;;;;;;18.17;100.00;100995.75;7362004;19;20424;-38
2023/08/15 00:20:48;;;;;;;13.02;7.55;;;;;;;18.16;100.00;100986.13;7390809;19;20365;-38
2023/08/15 00:23:20;;;;;;;10.65;7.43;;;;;;;18.13;100.00;100978.28;7369630;19;20333;-38
2023/08/15 00:25:50;;;;;;;15.32;7.18;;;;;;;18.08;100.00;100986.06;7393476;19;20356;-37
2023/08/15 00:28:20;;;;;;;10.60;7.13;;;;;;;18.12;100.00;100979.13;7366892;19;20461;-37
2023/08/15 00:30:49;;;;;;;11.75;6.72;;;;;;;18.05;100.00;100978.16;7393982;19;20344;-36
2023/08/15 00:33:19;;;;;;;11.38;6.70;;;;;;;18.15;100.00;100980.91;7367098;19;20304;-38
2023/08/15 00:35:48;;;;;;;10.73;5.97;;;;;;;18.11;100.00;100980.00;7392744;19;20352;-38
2023/08/15 00:38:21;;;;;;;12.85;6.20;;;;;;;18.04;100.00;100975.47;7367729;19;20423;-40
2023/08/15 00:40:50;;;;;;;9.10;6.50;;;;;;;18.01;100.00;100972.84;7390777;19;20360;-38
2023/08/15 00:43:20;;;;;;;9.55;6.00;;;;;;;17.96;100.00;100972.78;7369233;19;20336;-42
2023/08/15 00:45:50;;;;;;;11.80;6.50;;;;;;;17.97;100.00;100973.66;7392676;19;20847;-40
2023/08/15 00:48:20;;;;;;;11.77;6.10;;;;;;;17.98;100.00;100963.22;7366234;19;20344;-37
2023/08/15 00:50:50;;;;;;;10.90;7.28;;;;;;;18.00;100.00;100950.22;7393364;19;20355;-38
2023/08/15 00:53:23;;;;;;;10.38;6.68;;;;;;;17.94;100.00;100957.09;7367715;19;20955;-38
2023/08/15 00:55:53;;;;;;;13.00;7.80;;;;;;;17.93;100.00;100957.06;7390403;19;20620;-39
2023/08/15 00:58:22;;;;;;;10.10;6.60;;;;;;;17.97;100.00;100950.16;7368707;19;20447;-37
2023/08/15 01:00:53;;;;;;;12.02;7.15;;;;;;;17.95;100.00;100961.44;7390467;19;20352;-37
2023/08/15 01:03:23;;;;;;;10.40;6.60;;;;;;;17.96;100.00;100954.50;7369737;19;20379;-39
2023/08/15 01:05:53;;;;;;;9.65;6.10;;;;;;;17.98;100.00;100952.78;7392917;19;20365;-37
2023/08/15 01:08:25;;;;;;;12.02;6.55;;;;;;;18.02;100.00;100953.72;7366596;19;20339;-43
2023/08/15 01:10:55;;;;;;;12.05;6.50;;;;;;;18.07;100.00;100955.59;7392896;19;20364;-40
2023/08/15 01:13:30;;;;;;;13.40;6.77;;;;;;;18.15;100.00;100962.63;7367615;19;20324;-39
2023/08/15 01:16:01;;;;;;;11.05;6.78;;;;;;;18.16;100.00;100961.78;7392263;19;20483;-40
2023/08/15 01:18:33;;;;;;;11.30;6.47;;;;;;;18.08;100.00;100959.06;7367133;19;20352;-38
2023/08/15 01:21:04;;;;;;;14.82;6.70;;;;;;;18.10;100.00;100964.31;7392450;19;20348;-37
2023/08/15 01:23:44;;;;;;;11.00;6.70;;;;;;;18.11;100.00;100956.50;7367704;19;20376;-37
2023/08/15 01:26:14;;;;;;;9.75;6.50;;;;;;;18.07;100.00;100958.19;7391761;19;20340;-40
2023/08/15 01:28:43;;;;;;;12.60;7.45;;;;;;;18.06;100.00;100945.97;7365007;19;20329;-37
2023/08/15 01:31:17;;;;;;;11.85;7.50;;;;;;;18.08;100.00;100940.78;7389987;19;20373;-40
2023/08/15 01:33:53;;;;;;;11.63;7.07;;;;;;;18.06;100.00;100945.13;7366553;19;20329;-38
2023/08/15 01:36:28;;;;;;;10.18;6.63;;;;;;;18.03;100.00;100952.84;7393301;19;20459;-36
2023/08/15 01:39:03;;;;;;;12.03;6.40;;;;;;;18.04;100.00;100952.00;7363223;19;20967;-39
2023/08/15 01:41:35;;;;;;;12.25;6.45;;;;;;;18.03;100.00;100953.75;7390112;19;20352;-38
2023/08/15 01:44:05;;;;;;;11.00;6.43;;;;;;;18.03;100.00;100950.25;7365571;19;20304;-37
2023/08/15 01:46:35;;;;;;;10.45;6.40;;;;;;;18.10;100.00;100957.31;7388265;19;20365;-38
2023/08/15 01:49:05;;;;;;;11.70;7.00;;;;;;;18.12;100.00;100947.81;7367245;19;20345;-38
2023/08/15 01:51:34;;;;;;;11.73;7.15;;;;;;;18.06;100.00;100945.13;7395236;19;20357;-41
2023/08/15 01:54:07;;;;;;;10.00;6.57;;;;;;;18.02;100.00;100945.88;7368381;19;20432;-36
2023/08/15 01:56:37;;;;;;;10.52;6.55;;;;;;;18.07;100.00;100937.31;7389831;19;20698;-36
2023/08/15 01:59:06;;;;;;;11.43;7.15;;;;;;;18.10;100.00;100938.19;7359801;19;20332;-38
2023/08/15 02:01:36;;;;;;;11.70;6.70;;;;;;;18.10;100.00;100941.66;7391091;19;20372;-39
2023/08/15 02:04:06;;;;;;;11.50;6.50;;;;;;;18.08;100.00;100932.94;7364541;19;20301;-40
2023/08/15 02:06:35;;;;;;;10.25;7.10;;;;;;;18.08;100.00;100933.84;7389050;19;20896;-38
2023/08/15 02:09:08;;;;;;;11.82;7.20;;;;;;;18.10;100.00;100927.75;7363757;19;20333;-37
2023/08/15 02:11:37;;;;;;;14.38;7.10;;;;;;;18.01;100.00;100926.75;7389365;19;20364;-37
2023/08/15 02:14:07;;;;;;;12.30;6.90;;;;;;;18.07;100.00;100928.59;7365050;19;20303;-39
2023/08/15 02:16:37;;;;;;;11.13;6.67;;;;;;;18.01;100.00;100921.53;7392452;19;20423;-38
2023/08/15 02:19:06;;;;;;;13.40;6.95;;;;;;;18.04;100.00;100918.06;7362840;19;20328;-37
2023/08/15 02:21:36;;;;;;;14.45;7.47;;;;;;;18.01;100.00;100910.19;7391548;19;20352;-37
2023/08/15 02:24:09;;;;;;;12.52;6.60;;;;;;;17.97;100.00;100903.16;7365064;19;20301;-38
2023/08/15 02:26:38;;;;;;;12.02;7.60;;;;;;;17.99;100.00;100904.09;7389141;19;20352;-38
2023/08/15 02:29:08;;;;;;;14.33;7.97;;;;;;;17.99;100.00;100901.47;7363144;19;20353;-38
2023/08/15 02:31:45;;;;;;;13.30;7.72;;;;;;;17.92;100.00;100896.19;7388821;19;20789;-39
2023/08/15 02:34:14;;;;;;;14.53;7.57;;;;;;;17.88;100.00;100891.75;7364241;19;20840;-37
2023/08/15 02:36:46;;;;;;;10.30;7.40;;;;;;;17.88;100.00;100889.16;7388257;19;20427;-39
2023/08/15 02:39:18;;;;;;;13.25;7.10;;;;;;;17.89;100.00;100877.84;7363106;19;20358;-37
2023/08/15 02:41:48;;;;;;;12.02;6.85;;;;;;;17.89;100.00;100874.38;7390480;19;20707;-38
2023/08/15 02:44:18;;;;;;;11.00;7.63;;;;;;;17.84;100.00;100866.47;7363430;19;20312;-37
2023/08/15 02:46:48;;;;;;;14.23;7.10;;;;;;;17.90;100.00;100855.25;7390630;19;20352;-38
2023/08/15 02:49:17;;;;;;;10.75;7.50;;;;;;;17.89;100.00;100854.38;7362589;19;20337;-36
2023/08/15 02:51:47;;;;;;;11.73;7.53;;;;;;;17.86;100.00;100853.44;7388858;19;20353;-38
2023/08/15 02:54:19;;;;;;;13.52;8.40;;;;;;;17.76;100.00;100863.78;7363235;19;20353;-36
2023/08/15 02:56:48;;;;;;;10.95;7.90;;;;;;;17.72;100.00;100853.25;7388433;19;20358;-36
2023/08/15 02:59:18;;;;;;;13.45;8.10;;;;;;;17.70;100.00;100840.22;7362941;19;20366;-36
2023/08/15 03:01:49;;;;;;;14.20;7.85;;;;;;;17.72;100.00;100835.00;7389307;19;20341;-37
2023/08/15 03:04:19;;;;;;;14.27;8.37;;;;;;;17.70;100.00;100829.78;7362829;19;20718;-36
2023/08/15 03:06:48;;;;;;;11.68;7.90;;;;;;;17.71;100.00;100822.81;7387279;19;20348;-36
2023/08/15 03:09:21;;;;;;;11.90;7.38;;;;;;;17.74;100.00;100820.25;7362222;19;20336;-37
2023/08/15 03:11:50;;;;;;;14.00;8.30;;;;;;;17.70;100.00;100826.28;7388277;19;20436;-37
2023/08/15 03:14:20;;;;;;;12.55;7.63;;;;;;;17.62;100.00;100827.06;7362847;19;20858;-37
2023/08/15 03:16:49;;;;;;;15.30;8.15;;;;;;;17.54;100.00;100839.13;7389482;19;20344;-37
2023/08/15 03:19:19;;;;;;;11.35;7.63;;;;;;;17.51;100.00;100831.25;7364029;19;20336;-37
2023/08/15 03:21:49;;;;;;;14.45;8.65;;;;;;;17.50;100.00;100824.28;7387995;19;20423;-37
2023/08/15 03:24:21;;;;;;;15.23;8.20;;;;;;;17.52;100.00;100823.44;7362940;19;20383;-37
2023/08/15 03:26:51;;;;;;;15.50;8.90;;;;;;;17.54;100.00;100820.88;7387991;19;20944;-36
2023/08/15 03:29:18;;;;;;;15.63;8.63;;;;;;;17.52;100.00;100820.84;7362802;19;20721;-39
2023/08/15 03:31:48;;;;;;;13.48;8.50;;;;;;;17.52;100.00;100817.34;7387552;19;20358;-36
2023/08/15 03:34:17;;;;;;;14.45;8.30;;;;;;;17.53;100.00;100824.31;7362662;19;20328;-40
2023/08/15 03:36:47;;;;;;;12.95;8.60;;;;;;;17.52;100.00;100828.66;7388463;19;20439;-39
2023/08/15 03:39:16;;;;;;;13.10;8.50;;;;;;;17.53;100.00;100839.94;7364723;19;20341;-37
2023/08/15 03:41:49;;;;;;;13.65;9.00;;;;;;;17.53;100.00;100839.94;7387997;19;20423;-37
2023/08/15 03:44:18;;;;;;;12.45;8.40;;;;;;;17.58;100.00;100843.50;7362377;19;20292;-38
2023/08/15 03:46:48;;;;;;;13.13;8.63;;;;;;;17.59;100.00;100847.00;7386702;19;20427;-37
2023/08/15 03:49:17;;;;;;;12.77;8.90;;;;;;;17.60;100.00;100852.25;7360400;19;20341;-39
2023/08/15 03:51:47;;;;;;;20.23;12.90;;;;;;;17.65;100.00;100850.56;7388447;19;20355;-37
2023/08/15 03:54:17;;;;;;;19.92;11.25;;;;;;;17.67;100.00;100837.53;7366930;19;20312;-37
2023/08/15 03:56:49;;;;;;;20.60;13.23;;;;;;;17.89;100.00;100833.47;7393066;19;20361;-37
2023/08/15 03:59:18;;;;;;;32.83;18.55;;;;;;;17.97;100.00;100828.38;7368128;19;20433;-36
2023/08/15 04:01:48;;;;;;;18.63;12.80;;;;;;;18.07;100.00;100826.78;7396204;19;20415;-37
2023/08/15 04:04:18;;;;;;;20.48;13.00;;;;;;;18.08;100.00;100824.19;7369212;19;20308;-36
2023/08/15 04:06:47;;;;;;;15.30;10.20;;;;;;;18.02;100.00;100841.47;7391647;19;20441;-41
2023/08/15 04:09:17;;;;;;;12.43;9.30;;;;;;;18.05;100.00;100859.78;7365407;19;20345;-37
2023/08/15 04:11:50;;;;;;;12.17;9.33;;;;;;;18.00;100.00;100869.28;7395905;19;20696;-36
2023/08/15 04:14:19;;;;;;;17.48;10.40;;;;;;;18.08;100.00;100875.50;7369177;19;21196;-37
2023/08/15 04:16:49;;;;;;;15.07;9.00;;;;;;;18.05;100.00;100875.47;7393132;19;20373;-37
2023/08/15 04:19:18;;;;;;;15.35;9.70;;;;;;;18.08;100.00;100876.41;7367885;19;20336;-39
2023/08/15 04:21:48;;;;;;;16.83;10.32;;;;;;;18.07;100.00;100869.44;7397297;19;20775;-37
2023/08/15 04:24:19;;;;;;;22.27;13.25;;;;;;;18.11;100.00;100859.91;7369325;19;20301;-41
2023/08/15 04:26:51;;;;;;;21.80;13.70;;;;;;;18.14;100.00;100864.28;7392492;19;20710;-37
2023/08/15 04:29:20;;;;;;;24.10;16.30;;;;;;;18.20;100.00;100864.38;7366986;19;20682;-36
2023/08/15 04:31:50;;;;;;;25.60;17.23;;;;;;;18.25;100.00;100856.56;7391896;19;20363;-38
2023/08/15 04:34:20;;;;;;;20.02;12.65;;;;;;;18.27;100.00;100868.78;7365828;19;20328;-36
2023/08/15 04:36:49;;;;;;;19.73;12.20;;;;;;;18.30;100.00;100865.34;7392268;19;20716;-38
2023/08/15 04:39:21;;;;;;;17.15;11.55;;;;;;;18.39;100.00;100864.53;7366071;19;20333;-42
2023/08/15 04:41:53;;;;;;;16.83;10.05;;;;;;;18.29;100.00;100880.13;7396174;19;20349;-36
2023/08/15 04:44:23;;;;;;;15.63;10.20;;;;;;;18.21;100.00;100877.41;7369353;19;20307;-38
2023/08/15 04:46:53;;;;;;;13.40;10.13;;;;;;;18.20;100.00;100880.88;7392593;19;20364;-36
2023/08/15 04:49:22;;;;;;;13.52;9.68;;;;;;;18.18;100.00;100889.56;7367267;19;20336;-37
2023/08/15 04:51:52;;;;;;;15.03;10.20;;;;;;;18.12;100.00;100885.16;7391385;19;20360;-39
2023/08/15 04:54:22;;;;;;;14.45;9.73;;;;;;;18.14;100.00;100890.41;7370442;19;20345;-40
2023/08/15 04:56:54;;;;;;;14.55;9.90;;;;;;;18.08;100.00;100880.72;7392181;19;20345;-37
2023/08/15 04:59:24;;;;;;;13.82;9.90;;;;;;;18.14;100.00;100882.56;7366399;19;20342;-38
2023/08/15 05:01:53;;;;;;;12.57;9.70;;;;;;;18.13;100.00;100889.50;7394789;19;20435;-37
2023/08/15 05:04:23;;;;;;;14.20;10.70;;;;;;;18.03;100.00;100898.03;7365879;19;20324;-39
2023/08/15 05:06:52;;;;;;;14.07;9.50;;;;;;;17.98;100.00;100887.53;7390267;19;20352;-40
2023/08/15 05:09:22;;;;;;;14.35;9.88;;;;;;;18.02;100.00;100893.69;7364558;19;20343;-37
2023/08/15 05:11:54;;;;;;;15.13;10.75;;;;;;;18.08;100.00;100880.72;7393701;19;20348;-39
2023/08/15 05:14:24;;;;;;;15.40;10.38;;;;;;;18.25;100.00;100851.34;7367419;19;20402;-37
2023/08/15 05:16:54;;;;;;;14.20;10.50;;;;;;;18.34;100.00;100836.66;7390924;19;20888;-40
2023/08/15 05:19:24;;;;;;;14.35;9.85;;;;;;;18.48;100.00;100834.22;7366412;19;20455;-37
2023/08/15 05:21:55;;;;;;;17.50;10.40;;;;;;;18.59;100.00;100841.25;7391299;19;20360;-38
2023/08/15 05:24:26;;;;;;;15.02;11.20;;;;;;;18.67;100.00;100834.34;7368739;19;20682;-38
2023/08/15 05:27:00;;;;;;;13.88;10.02;;;;;;;18.74;100.00;100844.03;7391279;19;20768;-37
2023/08/15 05:29:33;;;;;;;16.33;10.38;;;;;;;18.72;100.00;100864.03;7367678;19;20400;-36
2023/08/15 05:32:04;;;;;;;13.15;9.80;;;;;;;18.69;100.00;100876.19;7394367;19;20356;-38
2023/08/15 05:34:34;;;;;;;13.98;9.15;;;;;;;18.73;100.00;100878.84;7364829;19;20340;-37
2023/08/15 05:37:03;;;;;;;13.07;8.97;;;;;;;18.87;100.00;100878.13;7390343;19;20363;-39
2023/08/15 05:39:33;;;;;;;15.18;10.15;;;;;;;19.03;100.00;100892.25;7365152;19;20329;-40
2023/08/15 05:42:05;;;;;;;14.68;9.18;;;;;;;19.06;100.00;100904.47;7392553;19;20407;-37
2023/08/15 05:44:35;;;;;;;13.10;8.57;;;;;;;19.15;100.00;100909.75;7363702;19;20852;-36
2023/08/15 05:47:05;;;;;;;14.18;10.07;;;;;;;19.26;100.00;100902.88;7389208;19;20416;-40
2023/08/15 05:49:34;;;;;;;14.57;9.67;;;;;;;19.40;100.00;100899.50;7368110;19;20974;-37
2023/08/15 05:52:04;;;;;;;16.42;9.35;;;;;;;19.51;100.00;100903.06;7385017;19;20896;-37
2023/08/15 05:54:33;;;;;;;19.85;12.10;;;;;;;19.62;100.00;100913.59;7367432;19;20769;-36
2023/08/15 05:57:06;;;;;;;16.98;9.35;;;;;;;19.76;100.00;100918.06;7392836;19;20374;-37
2023/08/15 05:59:36;;;;;;;16.02;9.60;;;;;;;19.87;100.00;100918.09;7368187;19;21241;-37
2023/08/15 06:02:06;;;;;;;16.38;10.00;;;;;;;19.94;100.00;100925.16;7392523;19;20429;-37
2023/08/15 06:04:35;;;;;;;14.98;9.95;;;;;;;19.95;100.00;100942.59;7367952;19;20725;-36
2023/08/15 06:07:05;;;;;;;20.42;11.40;;;;;;;19.99;100.00;100954.00;7392195;19;20687;-41
2023/08/15 06:09:34;;;;;;;30.27;15.48;;;;;;;20.06;100.00;100964.50;7368219;19;20337;-38
2023/08/15 06:12:08;;;;;;;17.77;10.77;;;;;;;20.07;100.00;100971.50;7393818;19;20357;-37
2023/08/15 06:14:42;;;;;;;17.88;10.10;;;;;;;20.06;100.00;100985.44;7367159;19;20948;-37
2023/08/15 06:17:13;;;;;;;19.10;11.35;;;;;;;20.05;100.00;100993.31;7391086;19;20430;-41
2023/08/15 06:19:43;;;;;;;17.27;10.75;;;;;;;20.09;100.00;100998.56;7369295;19;20774;-37
2023/08/15 06:22:15;;;;;;;18.63;10.30;;;;;;;20.08;100.00;101004.69;7391582;19;20368;-37
2023/08/15 06:24:45;;;;;;;21.02;11.00;;;;;;;20.09;100.00;101003.81;7370714;19;20597;-40
2023/08/15 06:27:17;;;;;;;30.05;15.52;;;;;;;20.14;100.00;101003.84;7374903;19;20368;-36
2023/08/15 06:29:47;;;;;;;23.10;13.40;;;;;;;20.17;100.00;100995.13;7392990;19;20407;-38
2023/08/15 06:32:27;;;;;;;19.63;10.60;;;;;;;20.21;100.00;100992.53;7365929;19;20955;-42
2023/08/15 06:34:57;;;;;;;18.48;10.27;;;;;;;20.31;100.00;100995.22;7391382;19;20357;-40
2023/08/15 06:37:26;;;;;;;18.40;9.90;;;;;;;20.39;100.00;101003.13;7366915;19;20383;-37
2023/08/15 06:39:56;;;;;;;24.65;10.38;;;;;;;20.48;100.00;101004.03;7391757;19;20364;-37
2023/08/15 06:42:28;;;;;;;26.80;12.07;;;;;;;20.55;100.00;100999.69;7365124;19;20352;-38
2023/08/15 06:45:08;;;;;;;22.30;11.48;;;;;;;20.68;100.00;101002.34;7390004;19;20396;-37
2023/08/15 06:47:38;;;;;;;41.63;20.30;;;;;;;20.78;100.00;101006.75;7366895;19;20775;-36
2023/08/15 06:50:09;;;;;;;26.85;12.65;;;;;;;20.93;100.00;101020.81;7391052;19;20360;-38
2023/08/15 06:52:39;;;;;;;16.93;8.50;;;;;;;21.03;100.00;101038.34;7367776;19;20320;-40
2023/08/15 06:55:11;;;;;;;19.70;9.35;;;;;;;21.17;100.00;101040.97;7388614;19;20348;-39
2023/08/15 06:57:43;;;;;;;21.90;12.10;;;;;;;21.25;100.00;101039.25;7366528;19;20662;-38
2023/08/15 07:00:15;;;;;;;12.13;7.20;;;;;;;21.41;100.00;101055.91;7389341;19;20364;-41
2023/08/15 07:02:45;;;;;;;14.93;7.93;;;;;;;21.40;100.00;101069.00;7367897;19;20844;-40
2023/08/15 07:05:14;;;;;;;14.50;7.77;;;;;;;21.34;100.00;101095.22;7390314;19;20427;-40
2023/08/15 07:07:44;;;;;;;9.05;6.40;;;;;;;21.34;100.00;101122.38;7367214;19;20364;-41
2023/08/15 07:10:14;;;;;;;14.75;8.80;;;;;;;21.36;100.00;101125.84;7389790;19;20434;-42
2023/08/15 07:12:46;;;;;;;17.67;9.75;;;;;;;21.36;100.00;101125.84;7366820;19;20302;-44
2023/08/15 07:15:16;;;;;;;10.82;6.30;;;;;;;21.39;100.00;101125.84;7390412;19;20378;-41
2023/08/15 07:17:46;;;;;;;14.02;7.60;;;;;;;21.44;100.00;101124.13;7368108;19;20292;-39
2023/08/15 07:20:16;;;;;;;10.52;6.45;;;;;;;21.50;100.00;101122.38;7391024;19;20364;-45
2023/08/15 07:22:46;;;;;;;11.00;6.00;;;;;;;21.50;100.00;101143.38;7367741;19;20646;-43
2023/08/15 07:25:16;;;;;;;13.52;6.75;;;;;;;21.51;100.00;101139.88;7388896;19;20364;-39
2023/08/15 07:27:48;;;;;;;14.20;8.50;;;;;;;21.49;100.00;101147.78;7363981;19;20851;-37
2023/08/15 07:30:18;;;;;;;15.90;8.90;;;;;;;21.52;100.00;101147.78;7389969;19;20364;-40
2023/08/15 07:32:48;;;;;;;12.43;6.57;;;;;;;21.57;100.00;101148.66;7364775;19;20396;-41
2023/08/15 07:35:18;;;;;;;10.05;6.10;;;;;;;21.62;100.00;101148.66;7383393;19;20360;-39
2023/08/15 07:37:47;;;;;;;12.60;7.20;;;;;;;21.65;100.00;101153.94;7360728;19;20304;-44
2023/08/15 07:40:22;;;;;;;56.88;28.77;;;;;;;21.58;100.00;101162.63;7385870;19;20356;-37
2023/08/15 07:42:54;;;;;;;52.75;32.30;;;;;;;21.50;100.00;101169.63;7359183;19;20311;-37
2023/08/15 07:45:24;;;;;;;16.10;7.80;;;;;;;21.50;100.00;101185.38;7385420;19;20701;-39
2023/08/15 07:47:56;;;;;;;33.70;17.13;;;;;;;21.45;100.00;101178.34;7362162;19;21068;-41
2023/08/15 07:50:28;;;;;;;21.88;11.40;;;;;;;21.42;100.00;101177.47;7384533;19;20353;-36
2023/08/15 07:52:59;;;;;;;12.13;7.30;;;;;;;21.42;100.00;101180.09;7361013;19;20345;-39
2023/08/15 07:55:30;;;;;;;14.25;8.40;;;;;;;21.37;100.00;101166.97;7384728;19;20888;-42
2023/08/15 07:58:04;;;;;;;12.18;7.82;;;;;;;21.34;100.00;101182.72;7363016;19;20343;-38
2023/08/15 08:00:34;;;;;;;12.23;7.50;;;;;;;21.33;100.00;101196.69;7385980;19;20368;-42
2023/08/15 08:03:04;;;;;;;10.15;6.65;;;;;;;21.30;100.00;101205.44;7361018;19;20308;-43
2023/08/15 08:05:33;;;;;;;13.37;7.77;;;;;;;21.29;100.00;101213.31;7386167;19;20372;-42
2023/08/15 08:08:04;;;;;;;12.57;7.20;;;;;;;21.24;100.00;101207.16;7360975;19;20343;-39
2023/08/15 08:10:34;;;;;;;11.27;7.15;;;;;;;21.14;100.00;101201.00;7387193;19;20440;-39
2023/08/15 08:13:10;;;;;;;12.55;7.90;;;;;;;21.08;100.00;101193.97;7363751;19;20380;-38
2023/08/15 08:15:39;;;;;;;14.68;7.68;;;;;;;21.02;100.00;101183.47;7386551;19;20356;-39
2023/08/15 08:18:09;;;;;;;15.25;8.05;;;;;;;20.95;100.00;101176.41;7361385;19;20342;-37
2023/08/15 08:20:39;;;;;;;14.50;8.38;;;;;;;20.88;100.00;101165.00;7387311;19;20341;-41
2023/08/15 08:23:08;;;;;;;13.63;8.45;;;;;;;20.81;100.00;101144.84;7363309;19;20301;-38
2023/08/15 08:25:39;;;;;;;12.15;8.98;;;;;;;20.72;100.00;101129.94;7384308;19;20352;-37
2023/08/15 08:28:12;;;;;;;16.70;8.95;;;;;;;20.58;100.00;101125.50;7360908;19;20341;-40
2023/08/15 08:30:44;;;;;;;10.77;8.30;;;;;;;20.51;100.00;101129.81;7384629;19;20353;-39
2023/08/15 08:33:15;;;;;;;14.30;9.35;;;;;;;20.38;100.00;101107.03;7361891;19;20389;-37
2023/08/15 08:35:44;;;;;;;19.60;10.32;;;;;;;20.32;100.00;101089.53;7383694;19;20380;-37
2023/08/15 08:38:14;;;;;;;14.82;9.38;;;;;;;20.33;100.00;101083.41;7361065;19;20361;-38
2023/08/15 08:40:44;;;;;;;15.85;10.90;;;;;;;20.29;100.00;101080.75;7390279;19;20352;-36
2023/08/15 08:43:18;;;;;;;15.25;10.25;;;;;;;20.24;100.00;101063.28;7369361;19;20809;-37
2023/08/15 08:45:50;;;;;;;15.63;10.50;;;;;;;20.20;100.00;101050.16;7393008;19;20352;-36
2023/08/15 08:48:20;;;;;;;14.80;10.52;;;;;;;20.16;100.00;101043.13;7367532;19;20340;-38
2023/08/15 08:50:50;;;;;;;19.10;11.60;;;;;;;20.08;100.00;101023.03;7394025;19;20359;-41
2023/08/15 08:53:20;;;;;;;18.48;11.55;;;;;;;20.03;100.00;101016.88;7365926;19;20412;-41
2023/08/15 08:55:50;;;;;;;16.83;11.03;;;;;;;20.01;100.00;101007.25;7389811;19;20344;-38
2023/08/15 08:58:24;;;;;;;16.73;11.80;;;;;;;20.06;100.00;101001.16;7365005;19;20389;-36
2023/08/15 09:00:54;;;;;;;18.83;12.15;;;;;;;20.12;100.00;101002.06;7393244;19;20729;-36
2023/08/15 09:03:24;;;;;;;24.02;16.73;;;;;;;20.03;100.00;100997.66;7372097;19;20388;-36
2023/08/15 09:05:54;;;;;;;35.28;22.80;;;;;;;19.95;100.00;100976.66;7393158;19;20353;-38
2023/08/15 09:08:24;;;;;;;21.20;12.27;;;;;;;19.99;100.00;100969.72;7368924;19;20903;-44
2023/08/15 09:10:53;;;;;;;16.70;13.07;;;;;;;20.08;100.00;100973.25;7397656;19;20352;-37
2023/08/15 09:13:26;;;;;;;15.65;11.48;;;;;;;20.03;100.00;101000.28;7368043;19;20383;-40
2023/08/15 09:15:59;;;;;;;18.55;12.90;;;;;;;20.06;100.00;101016.88;7390237;19;20419;-37
2023/08/15 09:18:29;;;;;;;24.80;15.25;;;;;;;20.14;100.00;100997.75;7370305;19;20934;-37
2023/08/15 09:20:59;;;;;;;16.10;12.20;;;;;;;20.21;100.00;100974.19;7391275;19;20349;-40
2023/08/15 09:23:28;;;;;;;18.25;11.50;;;;;;;20.32;100.00;100976.88;7371236;19;20313;-36
2023/08/15 09:25:58;;;;;;;25.83;15.82;;;;;;;20.40;100.00;100979.53;7396245;19;20770;-37
2023/08/15 09:28:41;;;;;;;24.48;14.68;;;;;;;20.47;100.00;100970.81;7369474;19;20357;-38
2023/08/15 09:31:11;;;;;;;20.17;11.77;;;;;;;20.56;100.00;100964.72;7395277;19;20730;-37
2023/08/15 09:33:43;;;;;;;20.70;12.30;;;;;;;20.67;100.00;100982.25;7370150;19;20348;-39
2023/08/15 09:36:13;;;;;;;16.20;10.77;;;;;;;20.78;100.00;100981.41;7391978;19;20901;-36
2023/08/15 09:38:42;;;;;;;19.92;11.88;;;;;;;20.82;100.00;101007.63;7368995;19;20428;-36
2023/08/15 09:41:13;;;;;;;25.40;13.27;;;;;;;21.03;100.00;101017.34;7395113;19;20385;-38
2023/08/15 09:43:55;;;;;;;15.60;9.52;;;;;;;21.20;100.00;101035.75;7368834;19;20434;-38
2023/08/15 09:46:25;;;;;;;19.05;10.50;;;;;;;21.38;100.00;101055.03;7393838;19;20372;-38
2023/08/15 09:48:55;;;;;;;23.25;12.98;;;;;;;21.43;100.00;101064.63;7368723;19;20349;-37
2023/08/15 09:51:26;;;;;;;12.80;8.00;;;;;;;21.61;100.00;101081.28;7391268;19;20352;-38
2023/08/15 09:53:57;;;;;;;16.25;8.88;;;;;;;21.58;100.00;101116.28;7368887;19;20336;-38
2023/08/15 09:56:27;;;;;;;15.52;8.85;;;;;;;21.59;100.00;101139.03;7392315;19;20363;-40
2023/08/15 09:58:59;;;;;;;16.35;8.82;;;;;;;21.80;100.00;101152.22;7367344;19;20739;-38
2023/08/15 10:01:30;;;;;;;15.20;8.13;;;;;;;21.93;100.00;101167.13;7393382;19;20365;-40
2023/08/15 10:04:00;;;;;;;17.00;8.25;;;;;;;22.08;100.00;101189.91;7368617;19;21006;-38
2023/08/15 10:06:32;;;;;;;15.88;7.43;;;;;;;22.34;100.00;101207.41;7392875;19;20428;-42
2023/08/15 10:09:03;;;;;;;11.98;6.65;;;;;;;22.52;100.00;101235.47;7366735;19;20886;-40
2023/08/15 10:11:36;;;;;;;13.70;7.32;;;;;;;22.70;100.00;101256.53;7391245;19;20360;-39
2023/08/15 10:14:10;;;;;;;12.48;6.68;;;;;;;22.71;100.00;101269.66;7364142;19;20335;-39
2023/08/15 10:16:40;;;;;;;17.33;6.80;;;;;;;22.50;100.00;101279.25;7394920;19;20536;-39
2023/08/15 10:19:12;;;;;;;12.23;6.63;;;;;;;22.66;100.00;101281.91;7368059;19;20341;-37
2023/08/15 10:21:49;;;;;;;12.80;7.47;;;;;;;22.89;100.00;101288.91;7393487;19;20364;-38
2023/08/15 10:24:18;;;;;;;10.38;5.95;;;;;;;23.11;100.00;101300.28;7366620;19;20356;-41
2023/08/15 10:26:48;;;;;;;13.07;6.97;;;;;;;22.91;100.00;101313.47;7394568;19;20352;-39
2023/08/15 10:29:21;;;;;;;11.35;6.60;;;;;;;22.84;100.00;101322.25;7367301;19;20357;-42
2023/08/15 10:32:00;;;;;;;8.75;5.82;;;;;;;23.13;100.00;101321.34;7394327;19;20976;-36
2023/08/15 10:34:34;;;;;;;13.32;7.25;;;;;;;23.30;100.00;101324.84;7365107;19;20337;-38
2023/08/15 10:37:33;;;;;;;13.17;6.50;;;;;;;23.66;100.00;101326.47;7393678;19;20435;-37
2023/08/15 10:40:10;;;;;;;12.43;6.87;;;;;;;23.38;100.00;101353.75;7369831;19;20475;-36
2023/08/15 10:43:07;;;;;;;10.80;5.00;;;;;;;23.17;100.00;101373.09;7369678;19;20762;-38
2023/08/15 10:45:49;;;;;;;8.70;5.03;;;;;;;23.22;100.00;101370.44;7392246;19;20420;-36
2023/08/15 10:48:43;;;;;;;9.20;5.10;;;;;;;23.25;100.00;101363.44;7367576;19;20823;-37
2023/08/15 10:51:30;;;;;;;9.33;5.73;;;;;;;23.18;100.00;101359.06;7394904;19;20422;-38
2023/08/15 10:54:01;;;;;;;9.30;6.40;;;;;;;23.40;100.00;101359.03;7364266;19;20423;-36
2023/08/15 10:56:32;;;;;;;9.53;5.70;;;;;;;23.66;100.00;101356.34;7395169;19;20478;-41
2023/08/15 10:59:02;;;;;;;10.63;6.30;;;;;;;23.83;100.00;101368.56;7367733;19;20442;-41
2023/08/15 11:01:34;;;;;;;9.47;5.70;;;;;;;24.07;100.00;101369.38;7395076;19;20395;-39
2023/08/15 11:04:05;;;;;;;9.90;6.00;;;;;;;23.96;100.00;101388.72;7366473;19;20430;-37
2023/08/15 11:06:43;;;;;;;8.97;5.70;;;;;;;24.11;100.00;101377.25;7394816;19;20411;-38
2023/08/15 11:09:13;;;;;;;7.97;5.30;;;;;;;24.16;100.00;101378.97;7366944;19;20467;-41
2023/08/15 11:11:44;;;;;;;10.20;6.00;;;;;;;24.09;100.00;101376.38;7394824;19;20408;-40
2023/08/15 11:14:18;;;;;;;9.93;5.90;;;;;;;24.17;100.00;101388.63;7365836;19;20498;-40
2023/08/15 11:16:51;;;;;;;8.27;5.37;;;;;;;23.79;100.00;101394.03;7393969;19;20408;-36
2023/08/15 11:19:21;;;;;;;8.83;5.60;;;;;;;23.95;100.00;101389.56;7366724;19;20471;-40
2023/08/15 11:21:51;;;;;;;10.53;7.00;;;;;;;23.93;100.00;101383.44;7393083;19;20478;-36
2023/08/15 11:24:20;;;;;;;11.17;6.93;;;;;;;24.05;100.00;101385.13;7367583;19;20494;-37